Terminal Aerodrome Forecast
Issued by NWS Shreveport, LA

Home | Current Version | Previous Version | Text Only | Print | Product List | Glossary On
Versions: 1 2 3 4 5 6 7 8 9 10 11 12
667
FTUS44 KSHV 201728
TAFELD
TAF
KELD 201728Z 2018/2118 12008KT P6SM SCT250
     FM210000 12004KT P6SM BKN090 BKN150
     FM211000 13003KT P6SM BKN020 BKN090
     FM211200 13005KT P6SM BKN010
     FM211600 16009KT P6SM OVC020=

USA.gov is the U.S. government's official web portal to all federal, state and local government web resources and services.